Time;durP1;ratioP1;P1;durP2;ratioP2;P2;SDS_P1;SDS_P2;PMS_P1;PMS_P2;Temp;Humidity;BMP_temperature;BMP_pressure;BME280_temperature;BME280_humidity;BME280_pressure;Samples;Min_cycle;Max_cycle;Signal;HPM_P1;HPM_P2
2021/12/28 00:01:33;;;;;;;85.88;48.95;;;;;;;;;;6172262;28;20490;-65
2021/12/28 00:04:35;;;;;;;82.85;49.50;;;;;;;;;;6183207;28;20137;-65
2021/12/28 00:07:37;;;;;;;86.40;48.30;;;;;;;;;;6182599;28;20583;-65
2021/12/28 00:10:40;;;;;;;83.18;48.78;;;;;;;;;;6206685;28;20111;-65
2021/12/28 00:13:43;;;;;;;92.03;51.75;;;;;;;;;;6212882;28;20733;-65
2021/12/28 00:20:07;;;;;;;80.18;46.63;;;;;;;;;;6190198;28;20425;-65
2021/12/28 00:23:13;;;;;;;79.50;46.92;;;;;;;;;;6207269;28;20046;-65
2021/12/28 00:26:16;;;;;;;83.35;48.95;;;;;;;;;;6181414;28;20510;-65
2021/12/28 00:29:17;;;;;;;83.28;48.88;;;;;;;;;;6214132;28;20128;-65
2021/12/28 00:32:19;;;;;;;81.25;47.13;;;;;;;;;;6204837;28;20046;-65
2021/12/28 00:35:21;;;;;;;79.20;46.92;;;;;;;;;;6211606;28;20129;-65
2021/12/28 00:38:24;;;;;;;83.20;47.03;;;;;;;;;;6221328;28;20132;-65
2021/12/28 00:41:27;;;;;;;87.32;48.25;;;;;;;;;;6213631;28;20515;-65
2021/12/28 00:44:29;;;;;;;82.53;48.03;;;;;;;;;;6226655;28;20135;-65
2021/12/28 00:47:31;;;;;;;82.93;47.70;;;;;;;;;;6204412;28;20184;-65
2021/12/28 00:50:32;;;;;;;83.70;47.72;;;;;;;;;;6209752;28;20049;-65
2021/12/28 00:53:34;;;;;;;78.43;46.58;;;;;;;;;;6217950;28;20132;-65
2021/12/28 00:56:37;;;;;;;83.00;47.55;;;;;;;;;;6207619;28;20114;-65
2021/12/28 00:59:39;;;;;;;75.38;46.05;;;;;;;;;;6222557;28;20188;-65
2021/12/28 01:02:41;;;;;;;85.40;49.60;;;;;;;;;;6188181;28;20183;-65
2021/12/28 01:05:43;;;;;;;85.68;48.83;;;;;;;;;;6179250;28;20096;-65
2021/12/28 01:08:44;;;;;;;94.57;51.38;;;;;;;;;;6187447;28;20133;-65
2021/12/28 01:11:47;;;;;;;90.65;52.05;;;;;;;;;;6178743;28;20107;-65
2021/12/28 01:14:49;;;;;;;89.90;51.28;;;;;;;;;;6215546;28;20520;-65
2021/12/28 01:17:51;;;;;;;93.50;50.47;;;;;;;;;;6175214;28;20054;-65
2021/12/28 01:20:52;;;;;;;87.80;49.90;;;;;;;;;;6201367;28;20157;-65
2021/12/28 01:23:54;;;;;;;83.72;48.40;;;;;;;;;;6187400;28;20113;-65
2021/12/28 01:26:57;;;;;;;83.55;48.13;;;;;;;;;;6202823;28;20145;-65
2021/12/28 01:29:59;;;;;;;84.70;47.80;;;;;;;;;;6211854;28;20124;-65
2021/12/28 01:33:02;;;;;;;86.50;49.30;;;;;;;;;;6194613;28;20379;-65
2021/12/28 01:36:05;;;;;;;84.35;47.40;;;;;;;;;;6178862;28;20177;-65
2021/12/28 01:39:07;;;;;;;83.22;47.70;;;;;;;;;;6196975;28;20568;-65
2021/12/28 01:42:10;;;;;;;92.05;50.80;;;;;;;;;;6186928;28;20493;-65
2021/12/28 01:45:12;;;;;;;92.78;49.22;;;;;;;;;;6189892;28;20046;-65
2021/12/28 01:48:18;;;;;;;96.97;51.72;;;;;;;;;;6196121;28;20100;-65
2021/12/28 01:51:22;;;;;;;87.82;48.97;;;;;;;;;;6183915;28;20082;-65
2021/12/28 01:54:23;;;;;;;93.97;50.60;;;;;;;;;;6210076;28;20145;-65
2021/12/28 01:57:26;;;;;;;87.80;49.20;;;;;;;;;;6195086;28;20073;-65
2021/12/28 02:00:28;;;;;;;82.57;46.58;;;;;;;;;;6198180;28;20122;-65
2021/12/28 02:03:31;;;;;;;76.80;45.50;;;;;;;;;;6211684;28;20095;-65
2021/12/28 02:06:33;;;;;;;83.60;46.08;;;;;;;;;;6208189;28;20077;-65
2021/12/28 02:09:34;;;;;;;84.22;46.40;;;;;;;;;;6209621;28;20254;-65
2021/12/28 02:12:37;;;;;;;81.40;46.95;;;;;;;;;;6177450;28;20039;-65
2021/12/28 02:15:39;;;;;;;81.00;45.30;;;;;;;;;;6179277;28;20038;-65
2021/12/28 02:18:41;;;;;;;83.00;45.55;;;;;;;;;;6183171;28;20172;-64
2021/12/28 02:21:44;;;;;;;82.63;44.50;;;;;;;;;;6184862;28;20121;-65
2021/12/28 02:24:45;;;;;;;83.95;45.92;;;;;;;;;;6193388;28;20132;-65
2021/12/28 02:27:47;;;;;;;87.68;46.90;;;;;;;;;;6212355;28;20851;-65
2021/12/28 02:30:51;;;;;;;80.70;45.08;;;;;;;;;;6207875;28;20675;-65
2021/12/28 02:33:53;;;;;;;88.30;47.30;;;;;;;;;;6204246;28;20042;-65
2021/12/28 02:36:55;;;;;;;81.80;44.88;;;;;;;;;;6209489;28;20148;-65
2021/12/28 02:39:57;;;;;;;85.18;45.33;;;;;;;;;;6212698;28;20137;-65
2021/12/28 02:43:01;;;;;;;79.28;43.75;;;;;;;;;;6201578;28;20073;-65
2021/12/28 02:46:06;;;;;;;85.35;44.88;;;;;;;;;;6205401;28;20152;-65
2021/12/28 02:49:07;;;;;;;86.03;46.75;;;;;;;;;;6214613;28;20054;-65
2021/12/28 02:52:10;;;;;;;92.53;47.22;;;;;;;;;;6208923;28;20062;-65
2021/12/28 02:55:15;;;;;;;85.30;46.65;;;;;;;;;;6209224;28;20069;-65
2021/12/28 02:58:26;;;;;;;87.22;45.17;;;;;;;;;;6200676;28;20077;-65
2021/12/28 03:01:30;;;;;;;87.03;43.88;;;;;;;;;;6205774;28;20041;-65
2021/12/28 03:04:31;;;;;;;91.35;46.08;;;;;;;;;;6221766;28;20561;-65
2021/12/28 03:07:34;;;;;;;92.53;45.05;;;;;;;;;;6180532;28;20133;-65
2021/12/28 03:10:37;;;;;;;94.90;45.95;;;;;;;;;;6181933;28;20568;-65
2021/12/28 03:13:41;;;;;;;96.28;45.78;;;;;;;;;;6218635;28;20054;-65
2021/12/28 03:16:42;;;;;;;88.25;44.53;;;;;;;;;;6201175;28;20132;-65
2021/12/28 03:19:44;;;;;;;86.88;43.88;;;;;;;;;;6225531;28;20061;-65
2021/12/28 03:22:47;;;;;;;84.07;42.55;;;;;;;;;;6211275;28;20571;-65
2021/12/28 03:25:49;;;;;;;80.65;41.35;;;;;;;;;;6177232;28;20897;-65
2021/12/28 03:28:51;;;;;;;80.75;42.50;;;;;;;;;;6187665;28;20126;-65
2021/12/28 03:31:53;;;;;;;76.93;41.58;;;;;;;;;;6173325;28;20093;-65
2021/12/28 03:34:55;;;;;;;75.18;39.72;;;;;;;;;;6188533;28;20066;-65
2021/12/28 03:37:58;;;;;;;75.32;38.83;;;;;;;;;;6203627;28;20169;-64
2021/12/28 03:41:00;;;;;;;75.03;40.35;;;;;;;;;;6209922;28;20105;-65
2021/12/28 03:44:02;;;;;;;73.13;38.80;;;;;;;;;;6200228;28;20064;-65
2021/12/28 03:47:06;;;;;;;74.43;39.63;;;;;;;;;;6204966;28;20134;-65
2021/12/28 03:50:09;;;;;;;82.88;41.38;;;;;;;;;;6181595;28;20050;-65
2021/12/28 03:53:12;;;;;;;74.03;41.17;;;;;;;;;;6183568;28;20138;-65
2021/12/28 03:56:15;;;;;;;76.05;39.05;;;;;;;;;;6179427;28;20137;-65
2021/12/28 03:59:16;;;;;;;68.15;37.28;;;;;;;;;;6193516;28;20129;-65
2021/12/28 04:02:18;;;;;;;76.63;40.03;;;;;;;;;;6171634;28;20153;-65
2021/12/28 04:05:20;;;;;;;77.90;39.78;;;;;;;;;;6188488;28;20133;-65
2021/12/28 04:08:24;;;;;;;74.53;40.60;;;;;;;;;;6197503;28;20139;-65
2021/12/28 04:11:26;;;;;;;77.18;40.03;;;;;;;;;;6176724;28;20042;-65
2021/12/28 04:14:28;;;;;;;77.97;40.53;;;;;;;;;;6202606;28;20412;-65
2021/12/28 04:17:31;;;;;;;78.13;40.78;;;;;;;;;;6200775;28;20196;-65
2021/12/28 04:20:32;;;;;;;75.70;40.33;;;;;;;;;;6203079;28;20078;-65
2021/12/28 04:23:36;;;;;;;75.22;38.72;;;;;;;;;;6223527;28;20045;-65
2021/12/28 04:26:38;;;;;;;76.95;41.15;;;;;;;;;;6210567;28;20050;-65
2021/12/28 04:29:39;;;;;;;77.50;39.85;;;;;;;;;;6222758;28;20196;-65
2021/12/28 04:32:41;;;;;;;76.20;40.58;;;;;;;;;;6202272;28;20098;-65
2021/12/28 04:35:43;;;;;;;80.07;39.95;;;;;;;;;;6204204;28;20406;-65
2021/12/28 04:38:47;;;;;;;74.05;38.10;;;;;;;;;;6210273;28;20073;-65
2021/12/28 04:41:48;;;;;;;76.70;38.22;;;;;;;;;;6204250;28;20252;-65
2021/12/28 04:44:50;;;;;;;75.05;40.72;;;;;;;;;;6215538;28;20564;-65
2021/12/28 04:47:52;;;;;;;74.50;38.20;;;;;;;;;;6196688;28;20552;-65
2021/12/28 04:50:54;;;;;;;77.97;39.58;;;;;;;;;;6199281;28;20197;-65
2021/12/28 04:53:59;;;;;;;73.63;36.25;;;;;;;;;;6217741;28;20077;-65
2021/12/28 04:57:01;;;;;;;79.13;37.95;;;;;;;;;;6205372;28;20062;-65
2021/12/28 05:00:04;;;;;;;73.40;37.13;;;;;;;;;;6215789;28;20132;-65
2021/12/28 05:03:06;;;;;;;73.30;36.42;;;;;;;;;;6198708;28;20140;-65
2021/12/28 05:06:08;;;;;;;75.68;37.95;;;;;;;;;;6174580;28;20168;-65
2021/12/28 05:09:15;;;;;;;69.03;35.53;;;;;;;;;;6187132;28;20130;-65
2021/12/28 05:12:17;;;;;;;66.95;34.72;;;;;;;;;;6181881;28;20046;-65
2021/12/28 05:15:19;;;;;;;65.28;33.60;;;;;;;;;;6178652;28;20142;-65
2021/12/28 05:18:21;;;;;;;68.35;33.53;;;;;;;;;;6187091;28;20152;-65
2021/12/28 05:21:22;;;;;;;71.25;36.17;;;;;;;;;;6188181;28;20374;-65
2021/12/28 05:24:25;;;;;;;74.45;37.85;;;;;;;;;;6202038;28;20219;-65
2021/12/28 05:27:27;;;;;;;72.45;36.90;;;;;;;;;;6184748;28;20120;-65
2021/12/28 05:30:28;;;;;;;74.43;36.90;;;;;;;;;;6177576;28;20039;-65
2021/12/28 05:33:30;;;;;;;71.57;35.80;;;;;;;;;;6180371;28;20058;-65
2021/12/28 05:36:33;;;;;;;63.75;33.95;;;;;;;;;;6178223;28;20595;-65
2021/12/28 05:39:36;;;;;;;67.72;33.60;;;;;;;;;;6188724;28;20229;-65
2021/12/28 05:42:38;;;;;;;69.65;33.67;;;;;;;;;;6184033;28;20046;-65
2021/12/28 05:45:39;;;;;;;69.07;33.33;;;;;;;;;;6207948;28;20058;-65
2021/12/28 05:48:41;;;;;;;68.25;33.75;;;;;;;;;;6219750;28;20041;-65
2021/12/28 05:51:43;;;;;;;65.00;34.53;;;;;;;;;;6207963;28;20136;-65
2021/12/28 05:54:46;;;;;;;61.03;32.83;;;;;;;;;;6226039;28;20123;-65
2021/12/28 05:57:47;;;;;;;62.10;32.47;;;;;;;;;;6206726;28;20095;-65
2021/12/28 06:00:49;;;;;;;61.40;32.38;;;;;;;;;;6207822;28;20107;-65
2021/12/28 06:03:50;;;;;;;61.00;31.27;;;;;;;;;;6222130;28;20188;-65
2021/12/28 06:06:52;;;;;;;64.47;32.70;;;;;;;;;;6209735;28;20122;-66
2021/12/28 06:09:56;;;;;;;63.17;32.17;;;;;;;;;;6221714;28;20210;-65
2021/12/28 06:12:58;;;;;;;;;;;;;;;;;;6212507;28;20058;-66
2021/12/28 06:15:59;;;;;;;65.80;33.47;;;;;;;;;;6213497;28;19975;-66
2021/12/28 06:19:01;;;;;;;65.45;34.28;;;;;;;;;;6215878;28;20137;-65
2021/12/28 06:22:03;;;;;;;69.72;36.83;;;;;;;;;;6206098;28;20495;-65
2021/12/28 06:25:07;;;;;;;65.97;34.40;;;;;;;;;;6214876;28;20059;-64
2021/12/28 06:28:09;;;;;;;71.60;38.33;;;;;;;;;;6213061;28;20046;-65
2021/12/28 06:31:10;;;;;;;73.15;37.10;;;;;;;;;;6208395;28;20140;-65
2021/12/28 06:34:12;;;;;;;74.57;37.78;;;;;;;;;;6212249;28;20050;-64
2021/12/28 06:37:14;;;;;;;69.75;37.95;;;;;;;;;;6196668;28;20073;-65
2021/12/28 06:40:17;;;;;;;72.25;37.35;;;;;;;;;;6191433;28;20204;-65
2021/12/28 06:43:18;;;;;;;67.95;36.78;;;;;;;;;;6215818;28;20037;-64
2021/12/28 06:46:20;;;;;;;69.55;36.35;;;;;;;;;;6199656;28;21016;-64
2021/12/28 06:49:22;;;;;;;69.38;35.78;;;;;;;;;;6208181;28;20452;-64
2021/12/28 06:52:23;;;;;;;66.55;35.17;;;;;;;;;;6176144;28;20482;-65
2021/12/28 06:55:26;;;;;;;70.35;37.25;;;;;;;;;;6180636;28;20038;-65
2021/12/28 06:58:28;;;;;;;68.28;36.28;;;;;;;;;;6188292;28;20593;-65
2021/12/28 07:01:30;;;;;;;74.20;37.88;;;;;;;;;;6169418;28;20130;-65
2021/12/28 07:04:31;;;;;;;84.60;41.35;;;;;;;;;;6197605;28;20074;-65
2021/12/28 07:07:33;;;;;;;77.20;40.42;;;;;;;;;;6182550;28;20128;-65
2021/12/28 07:10:36;;;;;;;78.95;43.00;;;;;;;;;;6190119;28;21689;-65
2021/12/28 07:13:37;;;;;;;80.43;42.50;;;;;;;;;;6188663;28;20129;-65
2021/12/28 07:16:39;;;;;;;83.45;43.30;;;;;;;;;;6171028;28;20057;-65
2021/12/28 07:19:41;;;;;;;79.82;42.67;;;;;;;;;;6208963;28;20192;-64
2021/12/28 07:22:43;;;;;;;78.22;41.28;;;;;;;;;;6200682;28;20046;-64
2021/12/28 07:25:46;;;;;;;78.43;42.00;;;;;;;;;;6204376;28;20481;-64
2021/12/28 07:28:48;;;;;;;82.97;44.08;;;;;;;;;;6216852;28;20041;-64
2021/12/28 07:31:50;;;;;;;81.13;43.40;;;;;;;;;;6195223;28;20945;-65
2021/12/28 07:34:51;;;;;;;78.40;42.08;;;;;;;;;;6208241;28;20147;-64
2021/12/28 07:37:53;;;;;;;88.55;44.83;;;;;;;;;;6206946;28;20513;-65
2021/12/28 07:40:56;;;;;;;83.57;44.33;;;;;;;;;;6207404;28;20570;-64
2021/12/28 07:43:58;;;;;;;82.85;44.28;;;;;;;;;;6220145;28;20121;-65
2021/12/28 07:47:01;;;;;;;77.80;42.83;;;;;;;;;;6196424;28;20213;-65
2021/12/28 07:50:04;;;;;;;78.32;43.08;;;;;;;;;;6200377;28;20143;-65
2021/12/28 07:53:06;;;;;;;83.45;43.85;;;;;;;;;;6202702;28;20549;-64
2021/12/28 07:56:09;;;;;;;80.82;42.95;;;;;;;;;;6204854;28;20184;-64
2021/12/28 07:59:11;;;;;;;75.60;42.55;;;;;;;;;;6217791;28;20139;-64
2021/12/28 08:02:12;;;;;;;82.38;44.00;;;;;;;;;;6203591;28;20485;-65
2021/12/28 08:05:15;;;;;;;78.75;43.53;;;;;;;;;;6213032;28;20180;-65
2021/12/28 08:08:18;;;;;;;78.22;43.97;;;;;;;;;;6198820;28;20141;-65
2021/12/28 08:11:22;;;;;;;80.60;43.78;;;;;;;;;;6193225;28;20717;-65
2021/12/28 08:14:24;;;;;;;76.95;43.30;;;;;;;;;;6195060;28;20686;-65
2021/12/28 08:17:26;;;;;;;80.35;44.70;;;;;;;;;;6180434;28;20192;-64
2021/12/28 08:20:27;;;;;;;80.60;45.05;;;;;;;;;;6204121;28;20103;-64
2021/12/28 08:23:29;;;;;;;81.65;44.65;;;;;;;;;;6205968;28;20125;-64
2021/12/28 08:26:32;;;;;;;77.60;43.22;;;;;;;;;;6211976;28;20632;-65
2021/12/28 08:29:34;;;;;;;84.68;44.55;;;;;;;;;;6223189;28;20168;-65
2021/12/28 08:32:36;;;;;;;81.60;43.88;;;;;;;;;;6198375;28;20658;-65
2021/12/28 08:35:40;;;;;;;80.03;43.05;;;;;;;;;;6196467;28;20105;-65
2021/12/28 08:38:43;;;;;;;74.65;41.08;;;;;;;;;;6199573;28;20506;-65
2021/12/28 08:41:46;;;;;;;82.03;43.30;;;;;;;;;;6185618;28;20046;-65
2021/12/28 08:44:48;;;;;;;82.95;43.30;;;;;;;;;;6200947;28;20150;-64
2021/12/28 08:47:51;;;;;;;77.80;42.53;;;;;;;;;;6182624;28;20152;-65
2021/12/28 08:50:53;;;;;;;81.50;42.45;;;;;;;;;;6203404;28;20057;-65
2021/12/28 08:53:55;;;;;;;88.93;43.25;;;;;;;;;;6210657;28;20617;-65
2021/12/28 08:56:58;;;;;;;87.55;43.35;;;;;;;;;;6201185;28;20086;-65
2021/12/28 09:00:00;;;;;;;89.97;44.67;;;;;;;;;;6189240;28;20120;-64
2021/12/28 09:03:02;;;;;;;90.07;44.50;;;;;;;;;;6166048;28;20133;-65
2021/12/28 09:06:05;;;;;;;94.95;45.58;;;;;;;;;;6196423;28;20077;-65
2021/12/28 09:09:08;;;;;;;92.45;44.72;;;;;;;;;;6195014;28;20414;-65
2021/12/28 09:12:11;;;;;;;89.75;46.95;;;;;;;;;;6178143;28;20056;-65
2021/12/28 09:15:13;;;;;;;100.20;47.47;;;;;;;;;;6182325;28;20185;-65
2021/12/28 09:18:15;;;;;;;90.68;46.25;;;;;;;;;;6187317;28;20074;-64
2021/12/28 09:21:16;;;;;;;97.15;46.92;;;;;;;;;;6180291;28;20132;-65
2021/12/28 09:24:18;;;;;;;100.43;49.25;;;;;;;;;;6203790;28;20277;-65
2021/12/28 09:27:21;;;;;;;94.50;48.85;;;;;;;;;;6187215;28;20652;-65
2021/12/28 09:30:23;;;;;;;92.03;47.17;;;;;;;;;;6183028;28;20077;-65
2021/12/28 09:33:25;;;;;;;95.78;50.05;;;;;;;;;;6191310;28;20133;-65
2021/12/28 09:36:26;;;;;;;92.00;47.45;;;;;;;;;;6193784;28;20053;-64
2021/12/28 09:39:29;;;;;;;97.35;47.75;;;;;;;;;;6193135;28;20391;-64
2021/12/28 09:42:32;;;;;;;94.70;48.55;;;;;;;;;;6184496;28;20039;-65
2021/12/28 09:45:34;;;;;;;94.55;47.35;;;;;;;;;;6188488;28;20145;-65
2021/12/28 09:48:36;;;;;;;91.97;48.42;;;;;;;;;;6194669;28;20222;-65
2021/12/28 09:51:37;;;;;;;100.47;48.10;;;;;;;;;;6190414;28;20205;-64
2021/12/28 09:54:39;;;;;;;93.60;45.10;;;;;;;;;;6217632;28;20148;-65
2021/12/28 09:57:42;;;;;;;91.35;47.63;;;;;;;;;;6196148;28;20125;-64
2021/12/28 10:00:44;;;;;;;86.63;47.08;;;;;;;;;;6173722;28;20125;-65
2021/12/28 10:03:45;;;;;;;85.20;45.40;;;;;;;;;;6187674;28;20098;-64
2021/12/28 10:06:47;;;;;;;87.00;44.60;;;;;;;;;;6180396;28;20479;-65
2021/12/28 10:09:49;;;;;;;87.90;45.92;;;;;;;;;;6193084;28;20584;-65
2021/12/28 10:12:55;;;;;;;84.82;44.50;;;;;;;;;;6198931;28;20180;-64
2021/12/28 10:15:56;;;;;;;89.20;46.63;;;;;;;;;;6171939;28;20090;-64
2021/12/28 10:19:37;;;;;;;86.30;45.75;;;;;;;;;;6182400;28;20124;-65
2021/12/28 10:22:39;;;;;;;87.95;44.22;;;;;;;;;;6191273;28;20046;-64
2021/12/28 10:25:42;;;;;;;89.35;43.70;;;;;;;;;;6205594;28;20955;-64
2021/12/28 10:28:46;;;;;;;87.82;44.53;;;;;;;;;;6203878;28;20124;-64
2021/12/28 10:31:47;;;;;;;88.45;44.40;;;;;;;;;;6166155;28;20164;-64
2021/12/28 10:34:50;;;;;;;93.95;46.00;;;;;;;;;;6184140;28;20522;-64
2021/12/28 10:37:54;;;;;;;90.35;44.92;;;;;;;;;;6185831;28;20140;-64
2021/12/28 10:40:57;;;;;;;88.75;43.25;;;;;;;;;;6185339;28;20094;-65
2021/12/28 10:44:00;;;;;;;93.87;45.10;;;;;;;;;;6180312;28;20527;-64
2021/12/28 10:47:24;;;;;;;92.07;45.50;;;;;;;;;;6185233;28;20476;-65
2021/12/28 10:50:31;;;;;;;90.35;44.08;;;;;;;;;;6218598;28;20891;-65
2021/12/28 10:53:49;;;;;;;89.45;45.03;;;;;;;;;;6210661;28;20100;-65
2021/12/28 10:56:53;;;;;;;92.72;44.63;;;;;;;;;;6199547;28;20056;-65
2021/12/28 11:00:26;;;;;;;84.32;42.13;;;;;;;;;;6217295;28;20129;-64
2021/12/28 11:03:33;;;;;;;79.97;40.15;;;;;;;;;;6207303;28;20052;-64
2021/12/28 11:06:38;;;;;;;76.50;39.05;;;;;;;;;;6196536;28;20046;-65
2021/12/28 11:09:47;;;;;;;78.20;41.83;;;;;;;;;;6212954;28;20177;-64
2021/12/28 11:12:49;;;;;;;79.97;41.97;;;;;;;;;;6206081;28;20129;-65
2021/12/28 11:15:52;;;;;;;81.63;41.08;;;;;;;;;;6176835;28;20137;-65
2021/12/28 11:18:55;;;;;;;82.13;41.85;;;;;;;;;;6203624;28;20123;-65
2021/12/28 11:22:00;;;;;;;83.15;42.30;;;;;;;;;;6189199;28;20509;-65
2021/12/28 11:25:01;;;;;;;76.32;41.92;;;;;;;;;;6184402;28;20046;-64
2021/12/28 11:28:15;;;;;;;75.60;39.50;;;;;;;;;;6180511;28;20097;-64
2021/12/28 11:31:20;;;;;;;77.68;40.88;;;;;;;;;;6203603;28;20510;-65
2021/12/28 11:34:24;;;;;;;75.72;40.05;;;;;;;;;;6211565;28;20050;-65
2021/12/28 11:37:27;;;;;;;74.10;38.65;;;;;;;;;;6198686;28;20133;-65
2021/12/28 11:40:28;;;;;;;82.03;40.17;;;;;;;;;;6181073;28;20117;-65
2021/12/28 11:43:30;;;;;;;79.38;41.60;;;;;;;;;;6186229;28;20082;-65
2021/12/28 11:46:33;;;;;;;80.25;41.72;;;;;;;;;;6199547;28;20095;-65
2021/12/28 11:49:36;;;;;;;80.40;40.10;;;;;;;;;;6222165;28;20120;-65
2021/12/28 11:52:37;;;;;;;78.85;40.95;;;;;;;;;;6206866;28;20128;-65
2021/12/28 11:55:41;;;;;;;79.95;42.17;;;;;;;;;;6212299;28;20534;-65
2021/12/28 11:59:02;;;;;;;82.07;40.50;;;;;;;;;;6209162;28;20053;-65
2021/12/28 12:02:07;;;;;;;74.60;38.38;;;;;;;;;;6206486;28;20065;-65
2021/12/28 12:05:13;;;;;;;75.47;37.95;;;;;;;;;;6206879;28;20127;-65
2021/12/28 12:08:17;;;;;;;65.72;35.58;;;;;;;;;;6216691;28;20109;-64
2021/12/28 12:11:18;;;;;;;66.18;34.88;;;;;;;;;;6209597;28;21634;-65
2021/12/28 12:14:20;;;;;;;67.97;34.50;;;;;;;;;;6182390;28;20574;-65
2021/12/28 12:17:39;;;;;;;65.93;34.47;;;;;;;;;;6174577;28;20395;-65
2021/12/28 12:20:47;;;;;;;66.18;36.38;;;;;;;;;;6189829;28;20042;-65
2021/12/28 12:23:52;;;;;;;71.00;35.63;;;;;;;;;;6192166;28;20051;-65
2021/12/28 12:26:53;;;;;;;69.82;35.15;;;;;;;;;;6200258;28;20708;-65
2021/12/28 12:29:56;;;;;;;65.53;36.50;;;;;;;;;;6200636;28;20161;-65
2021/12/28 12:33:04;;;;;;;65.78;34.28;;;;;;;;;;6174251;28;20058;-65
2021/12/28 12:36:10;;;;;;;60.40;34.58;;;;;;;;;;6178442;28;20058;-65
2021/12/28 12:39:12;;;;;;;70.43;34.28;;;;;;;;;;6188733;28;20043;-65
2021/12/28 12:42:20;;;;;;;68.03;35.35;;;;;;;;;;6212858;28;20049;-64
2021/12/28 12:45:57;;;;;;;68.35;36.78;;;;;;;;;;6208775;28;20462;-66
2021/12/28 12:49:03;;;;;;;71.72;35.17;;;;;;;;;;6183806;28;20066;-64
2021/12/28 12:52:13;;;;;;;72.65;36.38;;;;;;;;;;6184439;28;20188;-64
2021/12/28 12:55:34;;;;;;;129.75;67.18;;;;;;;;;;6210970;28;20512;-65
2021/12/28 12:58:39;;;;;;;70.95;36.30;;;;;;;;;;6217717;28;20152;-65
2021/12/28 13:02:01;;;;;;;72.70;38.35;;;;;;;;;;6177736;28;20121;-65
2021/12/28 13:05:21;;;;;;;76.15;37.80;;;;;;;;;;6190112;28;20050;-65
2021/12/28 13:08:22;;;;;;;83.95;39.15;;;;;;;;;;6208132;28;20139;-65
2021/12/28 13:11:30;;;;;;;105.55;50.20;;;;;;;;;;6212967;28;20148;-66
2021/12/28 13:14:33;;;;;;;89.85;43.78;;;;;;;;;;6221105;28;20614;-66
2021/12/28 13:17:40;;;;;;;77.65;38.10;;;;;;;;;;6175653;28;20497;-65
2021/12/28 13:20:47;;;;;;;81.70;40.55;;;;;;;;;;6193940;28;20472;-65
2021/12/28 13:24:06;;;;;;;85.22;39.80;;;;;;;;;;6208825;28;20069;-65
2021/12/28 13:27:09;;;;;;;89.85;40.45;;;;;;;;;;6200939;28;20064;-65
2021/12/28 13:30:14;;;;;;;71.82;37.05;;;;;;;;;;6193977;28;21679;-65
2021/12/28 13:33:20;;;;;;;84.95;39.60;;;;;;;;;;6183024;28;20113;-65
2021/12/28 13:36:23;;;;;;;74.05;37.15;;;;;;;;;;6182209;28;20057;-65
2021/12/28 13:39:25;;;;;;;82.83;38.67;;;;;;;;;;6188591;28;20066;-64
2021/12/28 13:42:27;;;;;;;82.65;38.15;;;;;;;;;;6176739;28;20476;-65
2021/12/28 13:45:32;;;;;;;82.20;39.17;;;;;;;;;;6179344;28;20076;-65
2021/12/28 13:48:35;;;;;;;83.25;38.83;;;;;;;;;;6213507;28;20108;-65
2021/12/28 13:51:38;;;;;;;86.13;39.77;;;;;;;;;;6209713;28;20133;-65
2021/12/28 13:54:49;;;;;;;82.40;38.15;;;;;;;;;;6209196;28;20050;-65
2021/12/28 13:57:50;;;;;;;86.75;41.30;;;;;;;;;;6202087;28;20092;-65
2021/12/28 14:00:54;;;;;;;83.30;40.42;;;;;;;;;;6200114;28;20418;-65
2021/12/28 14:03:57;;;;;;;80.90;39.35;;;;;;;;;;6193574;28;20558;-64
2021/12/28 14:07:00;;;;;;;84.87;40.27;;;;;;;;;;6196924;28;20594;-64
2021/12/28 14:10:04;;;;;;;78.63;39.08;;;;;;;;;;6190660;28;20133;-64
2021/12/28 14:13:11;;;;;;;81.00;40.97;;;;;;;;;;6186637;28;20143;-64
2021/12/28 14:16:13;;;;;;;86.22;40.40;;;;;;;;;;6198110;28;20073;-65
2021/12/28 14:19:16;;;;;;;81.80;40.25;;;;;;;;;;6207804;28;20057;-65
2021/12/28 14:22:20;;;;;;;85.20;40.05;;;;;;;;;;6201615;28;20068;-65
2021/12/28 14:25:22;;;;;;;83.55;39.50;;;;;;;;;;6205504;28;20490;-65
2021/12/28 14:28:25;;;;;;;79.05;36.60;;;;;;;;;;6208053;28;20548;-65
2021/12/28 14:31:29;;;;;;;75.43;36.58;;;;;;;;;;6166912;28;20141;-65
2021/12/28 14:34:34;;;;;;;66.95;32.80;;;;;;;;;;6186909;28;20087;-64
2021/12/28 14:37:38;;;;;;;;;;;;;;;;;;6187658;28;20175;-65
2021/12/28 14:40:42;;;;;;;69.87;33.97;;;;;;;;;;6182308;28;19922;-65
2021/12/28 14:43:43;;;;;;;;;;;;;;;;;;6205342;28;20434;-64
2021/12/28 14:46:47;;;;;;;69.35;35.47;;;;;;;;;;6196289;28;20060;-65
2021/12/28 14:49:50;;;;;;;76.90;36.42;;;;;;;;;;6213416;28;20053;-65
2021/12/28 14:52:55;;;;;;;72.13;36.97;;;;;;;;;;6200325;28;20160;-65
2021/12/28 14:56:07;;;;;;;74.43;35.72;;;;;;;;;;6202504;28;20139;-64
2021/12/28 14:59:14;;;;;;;73.45;35.47;;;;;;;;;;6200315;28;20038;-65
2021/12/28 15:02:17;;;;;;;73.28;36.55;;;;;;;;;;6175510;28;20187;-65
2021/12/28 15:05:19;;;;;;;74.38;35.85;;;;;;;;;;6191311;28;20097;-65
2021/12/28 15:08:23;;;;;;;75.88;37.28;;;;;;;;;;6187668;28;20066;-64
2021/12/28 15:11:25;;;;;;;76.95;37.35;;;;;;;;;;6185679;28;20120;-65
2021/12/28 15:14:27;;;;;;;80.35;39.38;;;;;;;;;;6189019;28;20117;-64
2021/12/28 15:17:28;;;;;;;79.65;39.45;;;;;;;;;;6178426;28;20133;-65
2021/12/28 15:20:31;;;;;;;89.18;40.80;;;;;;;;;;6192449;28;20061;-65
2021/12/28 15:23:35;;;;;;;86.85;41.30;;;;;;;;;;6201096;28;20125;-65
2021/12/28 15:26:37;;;;;;;79.40;39.47;;;;;;;;;;6193635;28;20038;-65
2021/12/28 15:29:41;;;;;;;81.60;42.08;;;;;;;;;;6194871;28;20146;-64
2021/12/28 15:32:47;;;;;;;85.05;41.38;;;;;;;;;;6174482;28;20580;-64
2021/12/28 15:35:49;;;;;;;76.88;38.00;;;;;;;;;;6176074;28;20057;-65
2021/12/28 15:38:53;;;;;;;81.68;40.13;;;;;;;;;;6185250;28;20510;-65
2021/12/28 15:41:54;;;;;;;80.50;38.88;;;;;;;;;;6186659;28;20093;-65
2021/12/28 15:44:56;;;;;;;77.30;39.30;;;;;;;;;;6216006;28;20136;-64
2021/12/28 15:47:58;;;;;;;84.32;40.40;;;;;;;;;;6192760;28;20085;-64
2021/12/28 15:50:59;;;;;;;75.53;38.58;;;;;;;;;;6179901;28;20479;-65
2021/12/28 15:54:04;;;;;;;81.95;38.40;;;;;;;;;;6181654;28;20137;-64
2021/12/28 15:57:06;;;;;;;84.50;41.05;;;;;;;;;;6182316;28;20077;-64
2021/12/28 16:00:12;;;;;;;81.78;39.85;;;;;;;;;;6195048;28;20120;-65
2021/12/28 16:03:13;;;;;;;84.07;40.38;;;;;;;;;;6202454;28;20054;-65
2021/12/28 16:06:16;;;;;;;84.03;40.88;;;;;;;;;;6184596;28;20125;-65
2021/12/28 16:09:19;;;;;;;81.90;40.92;;;;;;;;;;6224841;28;20073;-65
2021/12/28 16:12:20;;;;;;;81.13;39.92;;;;;;;;;;6210414;28;20085;-64
2021/12/28 16:15:22;;;;;;;81.32;38.75;;;;;;;;;;6208881;28;20191;-65
2021/12/28 16:18:24;;;;;;;77.10;37.90;;;;;;;;;;6208648;28;20054;-65
2021/12/28 16:21:25;;;;;;;75.90;36.88;;;;;;;;;;6198670;28;20066;-65
2021/12/28 16:24:29;;;;;;;73.35;36.25;;;;;;;;;;6208702;28;20134;-64
2021/12/28 16:27:31;;;;;;;71.65;36.00;;;;;;;;;;6207302;28;20367;-65
2021/12/28 16:30:33;;;;;;;70.88;36.88;;;;;;;;;;6179685;28;20079;-65
2021/12/28 16:33:35;;;;;;;74.07;36.63;;;;;;;;;;6184994;28;20133;-65
2021/12/28 16:36:39;;;;;;;73.05;36.88;;;;;;;;;;6196159;28;20054;-65
2021/12/28 16:39:42;;;;;;;74.28;36.22;;;;;;;;;;6206859;28;21100;-65
2021/12/28 16:42:43;;;;;;;67.53;34.58;;;;;;;;;;6192247;28;20038;-64
2021/12/28 16:45:45;;;;;;;71.10;37.40;;;;;;;;;;6184747;28;20151;-65
2021/12/28 16:48:47;;;;;;;74.35;37.00;;;;;;;;;;6179813;28;20556;-65
2021/12/28 16:51:49;;;;;;;71.55;35.72;;;;;;;;;;6180171;28;20068;-65
2021/12/28 16:54:52;;;;;;;67.15;34.83;;;;;;;;;;6196291;28;20666;-65
2021/12/28 16:57:53;;;;;;;68.93;34.50;;;;;;;;;;6196840;28;20086;-65
2021/12/28 17:00:57;;;;;;;69.65;34.75;;;;;;;;;;6191285;28;20133;-65
2021/12/28 17:04:01;;;;;;;70.80;35.53;;;;;;;;;;6195106;28;20133;-65
2021/12/28 17:07:03;;;;;;;68.15;35.30;;;;;;;;;;6179916;28;20054;-65
2021/12/28 17:10:08;;;;;;;70.38;36.35;;;;;;;;;;6204585;28;20521;-65
2021/12/28 17:13:10;;;;;;;75.22;36.17;;;;;;;;;;6190782;28;20038;-64
2021/12/28 17:16:13;;;;;;;75.90;37.25;;;;;;;;;;6193504;28;20176;-65
2021/12/28 17:19:14;;;;;;;71.07;35.70;;;;;;;;;;6223946;28;20061;-64
2021/12/28 17:22:16;;;;;;;68.70;35.00;;;;;;;;;;6185601;28;20184;-65
2021/12/28 17:25:19;;;;;;;70.93;35.03;;;;;;;;;;6208727;28;20205;-65
2021/12/28 17:28:21;;;;;;;68.05;35.47;;;;;;;;;;6197268;28;20796;-65
2021/12/28 17:31:22;;;;;;;68.13;34.13;;;;;;;;;;6166888;28;20109;-65
2021/12/28 17:34:24;;;;;;;70.60;36.13;;;;;;;;;;6185686;28;20082;-65
2021/12/28 17:37:26;;;;;;;73.30;36.67;;;;;;;;;;6176441;28;20078;-65
2021/12/28 17:40:29;;;;;;;68.15;34.65;;;;;;;;;;6204351;28;20038;-65
2021/12/28 17:43:33;;;;;;;69.93;35.43;;;;;;;;;;6197625;28;20046;-65
2021/12/28 17:46:35;;;;;;;70.10;36.80;;;;;;;;;;6184343;28;20626;-65
2021/12/28 17:49:36;;;;;;;67.45;34.78;;;;;;;;;;6214871;28;20184;-65
2021/12/28 17:52:38;;;;;;;71.55;36.95;;;;;;;;;;6209939;28;20046;-65